Time;durP1;ratioP1;P1;durP2;ratioP2;P2;SDS_P1;SDS_P2;PMS_P1;PMS_P2;Temp;Humidity;BMP_temperature;BMP_pressure;BME280_temperature;BME280_humidity;BME280_pressure;Samples;Min_cycle;Max_cycle;Signal;HPM_P1;HPM_P2
2022/03/08 00:00:33;;;;;;;15.87;8.67;;;1.90;99.90;;;;;;5046300;28;20036;-87
2022/03/08 00:03:00;;;;;;;13.80;9.57;;;1.90;99.90;;;;;;5026604;28;20040;-87
2022/03/08 00:05:28;;;;;;;17.33;9.80;;;1.90;99.90;;;;;;5046611;28;20043;-87
2022/03/08 00:07:56;;;;;;;19.27;11.23;;;1.90;99.90;;;;;;5039752;28;20036;-87
2022/03/08 00:10:23;;;;;;;15.40;9.03;;;1.80;99.90;;;;;;5046658;28;20496;-88
2022/03/08 00:12:50;;;;;;;13.13;8.30;;;1.90;99.90;;;;;;5028620;28;20048;-87
2022/03/08 00:15:20;;;;;;;12.80;9.47;;;1.90;99.90;;;;;;5049426;28;20483;-88
2022/03/08 00:17:48;;;;;;;15.83;10.67;;;1.80;99.90;;;;;;5045628;28;20036;-87
2022/03/08 00:20:15;;;;;;;15.80;9.93;;;1.80;99.90;;;;;;5030376;28;20048;-87
2022/03/08 00:22:42;;;;;;;15.07;9.20;;;1.80;99.90;;;;;;5045335;28;20150;-87
2022/03/08 00:25:11;;;;;;;11.33;7.20;;;1.80;99.90;;;;;;5034132;28;20036;-88
2022/03/08 00:27:38;;;;;;;16.83;10.07;;;1.80;99.90;;;;;;5066086;28;20036;-88
2022/03/08 00:30:06;;;;;;;15.93;10.37;;;1.80;99.90;;;;;;5064301;28;20027;-88
2022/03/08 00:32:33;;;;;;;17.33;10.07;;;1.90;99.90;;;;;;5017837;28;20037;-87
2022/03/08 00:35:01;;;;;;;16.77;8.90;;;1.80;99.90;;;;;;5065938;28;21032;-87
2022/03/08 00:37:28;;;;;;;12.93;8.80;;;1.80;99.90;;;;;;5029510;28;20463;-88
2022/03/08 00:39:55;;;;;;;15.30;10.00;;;1.80;99.90;;;;;;5048170;28;20044;-88
2022/03/08 00:42:22;;;;;;;14.03;9.13;;;1.80;99.90;;;;;;5048064;28;20816;-87
2022/03/08 00:44:48;;;;;;;15.00;9.07;;;1.80;99.90;;;;;;5062289;28;20029;-87
2022/03/08 00:47:15;;;;;;;13.77;8.63;;;1.80;99.90;;;;;;5043878;28;20503;-86
2022/03/08 00:49:42;;;;;;;13.60;9.30;;;1.80;99.90;;;;;;5074305;28;20519;-87
2022/03/08 00:52:10;;;;;;;15.23;9.70;;;1.80;99.90;;;;;;5049345;28;20032;-83
2022/03/08 00:54:37;;;;;;;11.63;7.97;;;1.80;99.90;;;;;;5065772;28;20739;-83
2022/03/08 00:57:05;;;;;;;11.83;7.93;;;1.80;99.90;;;;;;5052028;28;20032;-83
2022/03/08 00:59:32;;;;;;;12.93;8.93;;;1.80;99.90;;;;;;5082158;28;20040;-83
2022/03/08 01:02:00;;;;;;;13.40;8.60;;;1.70;99.90;;;;;;5050878;28;20048;-83
2022/03/08 01:04:26;;;;;;;14.40;8.90;;;1.70;99.90;;;;;;5050338;28;20036;-83
2022/03/08 01:06:55;;;;;;;13.03;8.77;;;1.70;99.90;;;;;;5085912;28;20032;-82
2022/03/08 01:09:24;;;;;;;14.20;8.50;;;1.70;99.90;;;;;;5063777;28;20032;-83
2022/03/08 01:11:52;;;;;;;12.83;8.60;;;1.80;99.90;;;;;;5049733;28;20028;-83
2022/03/08 01:14:18;;;;;;;13.70;8.73;;;1.70;99.90;;;;;;5065343;28;20036;-83
2022/03/08 01:16:45;;;;;;;12.40;7.50;;;1.70;99.90;;;;;;5064528;28;20040;-82
2022/03/08 01:19:12;;;;;;;16.77;10.73;;;1.70;99.90;;;;;;5045239;28;20039;-82
2022/03/08 01:21:38;;;;;;;13.83;10.20;;;1.70;99.90;;;;;;5065333;28;20040;-82
2022/03/08 01:24:08;;;;;;;13.10;8.93;;;1.60;99.90;;;;;;5066741;28;20032;-88
2022/03/08 01:26:34;;;;;;;15.07;10.17;;;1.60;99.90;;;;;;5064073;28;20058;-88
2022/03/08 01:29:03;;;;;;;12.50;8.23;;;1.60;99.90;;;;;;5049157;28;20116;-86
2022/03/08 01:31:34;;;;;;;13.17;8.63;;;1.50;99.90;;;;;;5032241;28;20032;-88
2022/03/08 01:34:02;;;;;;;12.80;9.13;;;1.50;99.90;;;;;;5035008;28;20032;-84
2022/03/08 01:36:32;;;;;;;15.57;8.40;;;1.50;99.90;;;;;;5068425;28;20051;-86
2022/03/08 01:39:00;;;;;;;17.10;10.20;;;1.40;99.90;;;;;;5048408;28;20035;-87
2022/03/08 01:41:26;;;;;;;13.30;9.13;;;1.40;99.90;;;;;;5068493;28;20039;-86
2022/03/08 01:43:54;;;;;;;14.03;8.50;;;1.40;99.90;;;;;;5094882;27;20040;-86
2022/03/08 01:46:24;;;;;;;15.13;10.10;;;1.40;99.90;;;;;;5067455;28;20028;-86
2022/03/08 01:48:54;;;;;;;12.47;8.53;;;1.40;99.90;;;;;;5068922;28;20043;-86
2022/03/08 01:51:22;;;;;;;13.27;8.87;;;1.30;99.90;;;;;;5050831;27;20501;-86
2022/03/08 01:53:50;;;;;;;12.97;8.20;;;1.30;99.90;;;;;;5066735;28;20463;-86
2022/03/08 01:56:18;;;;;;;14.80;9.50;;;1.30;99.90;;;;;;5072062;28;20391;-86
2022/03/08 01:58:48;;;;;;;11.17;7.77;;;1.30;99.90;;;;;;5086464;28;20030;-86
2022/03/08 02:01:15;;;;;;;16.87;9.40;;;1.30;99.90;;;;;;5105607;27;20024;-86
2022/03/08 02:03:45;;;;;;;13.63;7.73;;;1.30;99.90;;;;;;5073421;27;20054;-86
2022/03/08 02:06:12;;;;;;;14.77;7.87;;;1.30;99.90;;;;;;5071838;28;20024;-86
2022/03/08 02:08:41;;;;;;;12.10;7.93;;;1.30;99.90;;;;;;5074695;28;20027;-86
2022/03/08 02:11:08;;;;;;;10.70;7.20;;;1.30;99.90;;;;;;5050453;28;20039;-85
2022/03/08 02:13:35;;;;;;;13.83;8.00;;;1.20;99.90;;;;;;5072158;28;20043;-85
2022/03/08 02:16:03;;;;;;;9.67;6.97;;;1.20;99.90;;;;;;5086355;28;20036;-86
2022/03/08 02:18:30;;;;;;;11.67;7.30;;;1.20;99.90;;;;;;5057364;28;20039;-86
2022/03/08 02:21:08;;;;;;;13.03;7.03;;;1.20;99.90;;;;;;5065652;28;20051;-86
2022/03/08 02:23:36;;;;;;;12.67;7.93;;;1.20;99.90;;;;;;5064873;27;20147;-86
2022/03/08 02:26:02;;;;;;;11.63;7.77;;;1.10;99.90;;;;;;5067541;28;20481;-86
2022/03/08 02:28:30;;;;;;;12.33;7.00;;;1.20;99.90;;;;;;5058001;28;20043;-86
2022/03/08 02:30:57;;;;;;;8.53;6.03;;;1.20;99.90;;;;;;5066669;28;20031;-86
2022/03/08 02:33:25;;;;;;;9.40;6.67;;;1.10;99.90;;;;;;5051562;28;20056;-86
2022/03/08 02:35:52;;;;;;;10.20;6.87;;;1.10;99.90;;;;;;5066476;28;20040;-87
2022/03/08 02:38:19;;;;;;;9.43;6.77;;;1.10;99.90;;;;;;5052314;28;20039;-87
2022/03/08 02:40:46;;;;;;;15.00;7.30;;;1.10;99.90;;;;;;5068131;28;20039;-87
2022/03/08 02:43:15;;;;;;;10.83;6.70;;;1.10;99.90;;;;;;5067048;28;20023;-87
2022/03/08 02:45:42;;;;;;;9.43;6.23;;;1.10;99.90;;;;;;5069972;28;20054;-86
2022/03/08 02:48:11;;;;;;;8.20;5.73;;;1.10;99.90;;;;;;5052256;28;20040;-86
2022/03/08 02:50:38;;;;;;;8.23;5.77;;;1.10;99.90;;;;;;5102702;28;20050;-86
2022/03/08 02:53:04;;;;;;;9.10;5.60;;;1.10;99.90;;;;;;5071888;28;20024;-86
2022/03/08 02:55:33;;;;;;;9.40;5.83;;;1.10;99.90;;;;;;5084367;28;20043;-86
2022/03/08 02:58:01;;;;;;;12.30;6.30;;;1.10;99.90;;;;;;5071663;28;20039;-87
2022/03/08 03:00:32;;;;;;;9.57;5.53;;;1.10;99.90;;;;;;5047746;28;20713;-86
2022/03/08 03:03:00;;;;;;;10.33;6.23;;;1.10;99.90;;;;;;5082742;28;20487;-85
2022/03/08 03:05:26;;;;;;;7.67;5.40;;;1.10;99.90;;;;;;5070943;28;20019;-87
2022/03/08 03:07:53;;;;;;;8.90;5.93;;;1.10;99.90;;;;;;5074906;28;20028;-86
2022/03/08 03:10:21;;;;;;;9.23;5.07;;;1.10;99.90;;;;;;5055135;28;20034;-86
2022/03/08 03:12:48;;;;;;;6.87;4.93;;;1.10;99.90;;;;;;5053327;28;20023;-86
2022/03/08 03:15:18;;;;;;;12.20;5.33;;;1.10;99.90;;;;;;5072057;28;20028;-86
2022/03/08 03:17:46;;;;;;;7.93;4.80;;;1.10;99.90;;;;;;5052288;27;20020;-87
2022/03/08 03:20:15;;;;;;;6.97;4.90;;;1.10;99.90;;;;;;5054063;27;20024;-86
2022/03/08 03:22:42;;;;;;;12.27;5.10;;;1.10;99.90;;;;;;5064896;27;20028;-87
2022/03/08 03:25:10;;;;;;;9.77;4.80;;;1.10;99.90;;;;;;5070162;27;20036;-87
2022/03/08 03:27:37;;;;;;;8.90;5.40;;;1.10;99.90;;;;;;5073772;27;20387;-86
2022/03/08 03:30:12;;;;;;;7.83;5.03;;;1.10;99.90;;;;;;5060199;27;20028;-87
2022/03/08 03:32:39;;;;;;;7.55;5.30;;;1.00;99.90;;;;;;5071470;27;20512;-86
2022/03/08 03:35:08;;;;;;;10.40;5.57;;;1.00;99.90;;;;;;5071094;27;20035;-86
2022/03/08 03:37:35;;;;;;;8.27;5.43;;;1.10;99.90;;;;;;5088887;27;20054;-87
2022/03/08 03:40:06;;;;;;;9.90;5.30;;;1.00;99.90;;;;;;5083942;27;20419;-86
2022/03/08 03:42:33;;;;;;;6.73;5.00;;;1.00;99.90;;;;;;5054310;27;20471;-87
2022/03/08 03:45:00;;;;;;;7.70;5.27;;;1.00;99.90;;;;;;5054614;28;20036;-87
2022/03/08 03:47:27;;;;;;;7.20;4.80;;;1.00;99.90;;;;;;5074325;27;20023;-87
2022/03/08 03:49:53;;;;;;;8.13;5.20;;;1.00;99.90;;;;;;5068543;27;20483;-87
2022/03/08 03:52:20;;;;;;;5.57;4.43;;;1.00;99.90;;;;;;5055444;28;20082;-86
2022/03/08 03:54:47;;;;;;;8.13;4.93;;;1.00;99.90;;;;;;5067383;27;20036;-87
2022/03/08 03:57:16;;;;;;;6.30;3.63;;;1.00;99.90;;;;;;5054382;27;20058;-86
2022/03/08 03:59:43;;;;;;;8.40;4.73;;;1.00;99.90;;;;;;5051991;27;20023;-85
2022/03/08 04:02:09;;;;;;;6.97;4.23;;;1.00;99.90;;;;;;5055897;28;20035;-86
2022/03/08 04:04:36;;;;;;;9.70;5.70;;;1.00;99.90;;;;;;5069026;27;20683;-85
2022/03/08 04:07:02;;;;;;;6.60;4.20;;;1.00;99.90;;;;;;5069596;27;20738;-85
2022/03/08 04:09:29;;;;;;;7.13;4.77;;;0.90;99.90;;;;;;5070111;27;20039;-85
2022/03/08 04:11:56;;;;;;;8.97;5.73;;;1.00;99.90;;;;;;5037292;27;20421;-84
2022/03/08 04:14:22;;;;;;;6.43;4.50;;;0.90;99.90;;;;;;5072288;27;20046;-81
2022/03/08 04:16:49;;;;;;;8.00;4.80;;;0.90;99.90;;;;;;5104059;27;20038;-81
2022/03/08 04:19:16;;;;;;;6.53;4.53;;;0.90;99.90;;;;;;5077003;27;20363;-81
2022/03/08 04:21:42;;;;;;;7.63;4.30;;;0.90;99.90;;;;;;5053561;27;20046;-81
2022/03/08 04:24:08;;;;;;;7.50;4.33;;;0.90;99.90;;;;;;5068569;27;20019;-81
2022/03/08 04:26:35;;;;;;;11.33;4.83;;;0.90;99.90;;;;;;5069765;27;20039;-85
2022/03/08 04:29:02;;;;;;;5.37;3.90;;;0.90;99.90;;;;;;5065590;27;20024;-84
2022/03/08 04:31:28;;;;;;;6.33;4.47;;;1.00;99.90;;;;;;5070661;28;20058;-86
2022/03/08 04:33:55;;;;;;;12.47;5.23;;;0.90;99.90;;;;;;5050206;27;20063;-86
2022/03/08 04:36:21;;;;;;;5.80;4.30;;;0.90;99.90;;;;;;5087584;28;20430;-85
2022/03/08 04:38:48;;;;;;;7.90;5.13;;;0.90;99.90;;;;;;5068848;28;20050;-85
2022/03/08 04:41:15;;;;;;;8.17;5.37;;;0.90;99.90;;;;;;5051201;28;20051;-86
2022/03/08 04:43:42;;;;;;;4.60;3.87;;;0.90;99.90;;;;;;5066344;28;20040;-86
2022/03/08 04:46:09;;;;;;;7.17;4.13;;;1.00;99.90;;;;;;5065660;27;20027;-81
2022/03/08 04:48:36;;;;;;;6.53;4.67;;;0.90;99.90;;;;;;5062885;27;20024;-81
2022/03/08 04:51:03;;;;;;;7.13;4.27;;;1.00;99.90;;;;;;5046239;28;20043;-81
2022/03/08 04:53:29;;;;;;;5.83;4.00;;;0.90;99.90;;;;;;5046362;28;20051;-81
2022/03/08 04:55:56;;;;;;;7.03;4.13;;;0.90;99.90;;;;;;5059791;28;20043;-81
2022/03/08 04:58:22;;;;;;;6.70;4.67;;;0.90;99.90;;;;;;5059431;28;20039;-82
2022/03/08 05:00:49;;;;;;;6.40;4.20;;;0.90;99.90;;;;;;5030774;28;20370;-82
2022/03/08 05:03:15;;;;;;;7.40;4.60;;;0.90;99.90;;;;;;5077820;28;20028;-82
2022/03/08 05:05:48;;;;;;;7.03;4.27;;;1.00;99.90;;;;;;5079373;28;20059;-82
2022/03/08 05:08:14;;;;;;;6.43;4.13;;;0.90;99.90;;;;;;5049163;28;20046;-82
2022/03/08 05:10:41;;;;;;;5.87;4.23;;;0.90;99.90;;;;;;5066236;28;20114;-82
2022/03/08 05:13:10;;;;;;;6.07;4.27;;;1.00;99.90;;;;;;5060654;28;20043;-82
2022/03/08 05:15:36;;;;;;;6.17;4.03;;;1.00;99.90;;;;;;5096873;27;20034;-82
2022/03/08 05:18:03;;;;;;;7.33;5.43;;;0.90;99.90;;;;;;5043383;28;20426;-82
2022/03/08 05:20:30;;;;;;;7.90;5.10;;;1.00;99.90;;;;;;5048355;28;20036;-85
2022/03/08 05:23:00;;;;;;;7.10;4.70;;;1.00;99.90;;;;;;5046374;28;20095;-86
2022/03/08 05:25:28;;;;;;;8.30;5.00;;;1.00;99.90;;;;;;5049618;28;20024;-85
2022/03/08 05:27:54;;;;;;;6.47;4.30;;;1.00;99.90;;;;;;5051719;28;20042;-87
2022/03/08 05:30:21;;;;;;;6.53;4.30;;;1.00;99.90;;;;;;5077516;28;20845;-86
2022/03/08 05:32:50;;;;;;;8.93;4.60;;;0.90;99.90;;;;;;5074975;28;20882;-87
2022/03/08 05:35:20;;;;;;;7.50;4.17;;;0.90;99.90;;;;;;5061889;28;20726;-86
2022/03/08 05:37:47;;;;;;;9.77;4.70;;;0.90;99.90;;;;;;5063521;28;20020;-86
2022/03/08 05:40:16;;;;;;;8.13;5.07;;;1.00;99.90;;;;;;5012905;28;20491;-86
2022/03/08 05:42:44;;;;;;;11.30;5.47;;;1.00;99.80;;;;;;5062333;28;20032;-87
2022/03/08 05:45:11;;;;;;;9.30;5.57;;;1.00;99.70;;;;;;5061374;28;20512;-88
2022/03/08 05:47:41;;;;;;;7.10;4.83;;;1.00;99.70;;;;;;5064761;28;21012;-87
2022/03/08 05:50:09;;;;;;;7.70;5.53;;;1.00;99.60;;;;;;5029596;28;20051;-87
2022/03/08 05:52:37;;;;;;;7.67;5.27;;;1.00;99.60;;;;;;5064485;28;20043;-87
2022/03/08 05:55:08;;;;;;;8.10;5.90;;;1.10;99.50;;;;;;5065261;28;20287;-87
2022/03/08 05:57:35;;;;;;;7.80;5.37;;;1.10;99.40;;;;;;5047424;28;20567;-87
2022/03/08 06:00:05;;;;;;;8.23;5.03;;;1.10;99.30;;;;;;5060995;28;20036;-81
2022/03/08 06:02:38;;;;;;;9.43;5.70;;;1.10;99.30;;;;;;5060681;28;20051;-80
2022/03/08 06:05:05;;;;;;;10.70;5.47;;;1.10;99.30;;;;;;5081333;28;20031;-81
2022/03/08 06:07:31;;;;;;;10.30;5.23;;;1.10;99.30;;;;;;5081758;28;20044;-81
2022/03/08 06:10:02;;;;;;;9.90;4.83;;;1.10;99.20;;;;;;5061708;28;20035;-82
2022/03/08 06:12:29;;;;;;;10.13;5.30;;;1.10;99.10;;;;;;5063755;28;20047;-81
2022/03/08 06:14:56;;;;;;;8.47;4.90;;;1.10;99.10;;;;;;5075347;28;20047;-79
2022/03/08 06:17:24;;;;;;;8.63;5.43;;;1.10;99.10;;;;;;5079957;28;20052;-82
2022/03/08 06:19:51;;;;;;;10.27;5.30;;;1.20;99.10;;;;;;5058539;28;20028;-83
2022/03/08 06:22:18;;;;;;;8.17;5.57;;;1.20;99.00;;;;;;5078334;28;20371;-83
2022/03/08 06:24:45;;;;;;;9.27;5.43;;;1.20;98.90;;;;;;5076380;28;20035;-82
2022/03/08 06:27:13;;;;;;;6.60;4.73;;;1.20;98.90;;;;;;5065482;28;20373;-82
2022/03/08 06:29:40;;;;;;;11.93;5.43;;;1.30;98.90;;;;;;5056191;28;20032;-82
2022/03/08 06:32:08;;;;;;;10.20;5.50;;;1.30;98.80;;;;;;5068372;28;20055;-82
2022/03/08 06:34:34;;;;;;;7.23;5.10;;;1.40;98.80;;;;;;5066838;28;20044;-82
2022/03/08 06:37:01;;;;;;;7.83;4.73;;;1.40;98.70;;;;;;5084933;28;20036;-82
2022/03/08 06:39:27;;;;;;;9.60;5.13;;;1.50;98.60;;;;;;5082902;28;20044;-82
2022/03/08 06:41:54;;;;;;;7.27;5.47;;;1.50;98.50;;;;;;5051652;28;20053;-80
2022/03/08 06:44:20;;;;;;;7.17;4.63;;;1.60;98.40;;;;;;5067438;28;20036;-81
2022/03/08 06:46:47;;;;;;;8.57;5.90;;;1.60;98.30;;;;;;5066107;28;20039;-81
2022/03/08 06:49:14;;;;;;;8.27;5.20;;;1.70;98.10;;;;;;5080413;28;20028;-81
2022/03/08 06:51:41;;;;;;;6.80;4.83;;;1.80;98.00;;;;;;5052005;28;20032;-81
2022/03/08 06:54:12;;;;;;;7.53;5.50;;;1.80;97.90;;;;;;5052338;28;20095;-82
2022/03/08 06:56:39;;;;;;;7.67;5.40;;;1.90;97.80;;;;;;5058541;28;20035;-82
2022/03/08 06:59:05;;;;;;;8.73;5.70;;;1.90;97.70;;;;;;5084097;28;20032;-82
2022/03/08 07:01:32;;;;;;;8.77;5.47;;;2.00;97.50;;;;;;5039733;28;20048;-82
2022/03/08 07:04:01;;;;;;;8.00;5.63;;;2.10;97.40;;;;;;5074012;28;20031;-81
2022/03/08 07:06:29;;;;;;;7.87;5.30;;;2.10;97.20;;;;;;5088639;28;20513;-82
2022/03/08 07:08:55;;;;;;;7.03;5.20;;;2.20;97.10;;;;;;5068646;28;20495;-87
2022/03/08 07:11:22;;;;;;;7.87;5.93;;;2.30;97.10;;;;;;5069335;28;20209;-78
2022/03/08 07:13:48;;;;;;;8.73;6.00;;;2.30;96.90;;;;;;5084138;28;20036;-78
2022/03/08 07:16:18;;;;;;;11.47;5.73;;;2.40;96.70;;;;;;5030659;28;20047;-83
2022/03/08 07:18:45;;;;;;;8.37;6.10;;;2.50;96.60;;;;;;5064597;28;20043;-84
2022/03/08 07:21:11;;;;;;;9.77;5.90;;;2.60;96.40;;;;;;5084806;28;20024;-81
2022/03/08 07:23:39;;;;;;;8.10;6.23;;;2.70;96.20;;;;;;5066456;28;20051;-83
2022/03/08 07:26:06;;;;;;;8.33;6.00;;;2.70;96.10;;;;;;5067134;28;20047;-82
2022/03/08 07:28:32;;;;;;;8.17;5.63;;;2.80;96.00;;;;;;5076201;28;20044;-84
2022/03/08 07:31:00;;;;;;;7.53;5.73;;;2.90;95.80;;;;;;5051813;28;20024;-85
2022/03/08 07:33:31;;;;;;;9.57;6.50;;;2.90;95.60;;;;;;5085667;28;20020;-80
2022/03/08 07:36:03;;;;;;;8.17;5.97;;;3.00;95.40;;;;;;5065060;28;20056;-85
2022/03/08 07:38:31;;;;;;;8.90;5.90;;;3.10;95.40;;;;;;5051390;28;20020;-85
2022/03/08 07:40:59;;;;;;;10.27;6.17;;;3.20;95.30;;;;;;5088490;28;20561;-81
2022/03/08 07:43:28;;;;;;;9.67;6.90;;;3.30;95.00;;;;;;5051418;28;20052;-81
2022/03/08 07:45:55;;;;;;;11.53;6.57;;;3.30;94.90;;;;;;5080030;28;20036;-84
2022/03/08 07:48:22;;;;;;;8.40;5.70;;;3.40;94.70;;;;;;5052677;28;20032;-84
2022/03/08 07:50:50;;;;;;;8.53;5.93;;;3.40;94.60;;;;;;5081786;28;20040;-84
2022/03/08 07:53:16;;;;;;;9.63;6.50;;;3.50;94.80;;;;;;5072595;28;20040;-85
2022/03/08 07:55:46;;;;;;;9.63;6.33;;;3.70;94.60;;;;;;5067443;28;20052;-85
2022/03/08 07:58:19;;;;;;;10.13;6.80;;;3.80;93.90;;;;;;5064752;28;20035;-85
2022/03/08 08:00:46;;;;;;;8.90;6.47;;;3.80;93.70;;;;;;5068967;28;20051;-81
2022/03/08 08:03:14;;;;;;;8.80;6.70;;;3.80;93.80;;;;;;5084452;28;20126;-81
2022/03/08 08:05:41;;;;;;;8.13;5.87;;;3.90;93.70;;;;;;5069840;28;20039;-84
2022/03/08 08:08:08;;;;;;;8.77;5.43;;;3.90;93.60;;;;;;5035905;28;20040;-81
2022/03/08 08:10:35;;;;;;;9.30;5.93;;;4.00;93.70;;;;;;5052670;28;20051;-85
2022/03/08 08:13:02;;;;;;;9.70;5.70;;;4.00;93.70;;;;;;5067412;28;20036;-79
2022/03/08 08:15:29;;;;;;;11.37;6.57;;;4.10;93.70;;;;;;5080621;28;20052;-85
2022/03/08 08:17:56;;;;;;;9.93;5.40;;;4.20;93.50;;;;;;5049812;28;20518;-79
2022/03/08 08:20:22;;;;;;;10.90;6.70;;;4.20;93.40;;;;;;5056332;28;20032;-79
2022/03/08 08:22:49;;;;;;;9.67;6.23;;;4.30;93.20;;;;;;5064420;28;20054;-79
2022/03/08 08:25:16;;;;;;;11.17;6.93;;;4.40;93.30;;;;;;5081958;28;20028;-79
2022/03/08 08:27:43;;;;;;;10.30;6.53;;;4.50;93.00;;;;;;5051191;28;20036;-79
2022/03/08 08:30:10;;;;;;;7.57;6.00;;;4.50;92.90;;;;;;5030908;28;20070;-79
2022/03/08 08:32:37;;;;;;;6.87;5.43;;;4.60;92.90;;;;;;5083198;28;20040;-80
2022/03/08 08:35:04;;;;;;;9.47;5.43;;;4.60;92.80;;;;;;5063666;28;20028;-81
2022/03/08 08:37:31;;;;;;;8.67;5.07;;;4.70;92.80;;;;;;5075364;28;20032;-81
2022/03/08 08:39:57;;;;;;;8.30;5.30;;;4.90;93.00;;;;;;5076995;28;20051;-81
2022/03/08 08:42:24;;;;;;;6.50;4.47;;;5.00;92.30;;;;;;5045500;28;20028;-78
2022/03/08 08:45:13;;;;;;;7.03;4.73;;;5.10;92.10;;;;;;5052959;28;20028;-79
2022/03/08 08:47:40;;;;;;;8.23;5.30;;;5.20;91.90;;;;;;5055817;28;20059;-78
2022/03/08 08:50:07;;;;;;;9.80;5.20;;;5.30;91.40;;;;;;5078730;28;20157;-78
2022/03/08 08:52:33;;;;;;;7.37;5.33;;;5.40;91.30;;;;;;5061707;28;20024;-83
2022/03/08 08:55:00;;;;;;;6.20;4.87;;;5.50;91.20;;;;;;5050879;28;20526;-78
2022/03/08 08:57:28;;;;;;;7.30;4.70;;;5.60;91.00;;;;;;5051771;28;20032;-83
2022/03/08 08:59:54;;;;;;;6.50;4.77;;;5.70;91.10;;;;;;5017403;28;20119;-83
2022/03/08 09:02:21;;;;;;;9.87;5.20;;;5.80;90.60;;;;;;5033921;28;20039;-82
2022/03/08 09:04:47;;;;;;;8.43;4.73;;;5.90;90.40;;;;;;5084151;28;20391;-79
2022/03/08 09:07:13;;;;;;;9.53;5.80;;;6.00;89.80;;;;;;5077517;28;20032;-83
2022/03/08 09:09:40;;;;;;;9.02;5.15;;;6.00;89.50;;;;;;5049849;28;20028;-84
2022/03/08 09:12:07;;;;;;;6.47;3.70;;;6.10;89.50;;;;;;5052923;28;20040;-83
2022/03/08 09:14:35;;;;;;;6.70;5.18;;;6.10;89.20;;;;;;5069630;28;20031;-83
2022/03/08 09:17:02;;;;;;;7.10;4.93;;;6.20;89.00;;;;;;5034918;28;20036;-83
2022/03/08 09:19:28;;;;;;;7.60;4.67;;;6.30;88.80;;;;;;5086657;28;20387;-83
2022/03/08 09:21:57;;;;;;;6.72;4.00;;;6.50;87.80;;;;;;5066218;28;20032;-82
2022/03/08 09:24:23;;;;;;;8.37;4.57;;;6.60;86.80;;;;;;5049051;28;20035;-83
2022/03/08 09:26:50;;;;;;;5.85;4.07;;;6.70;85.50;;;;;;5046657;28;20036;-82
2022/03/08 09:29:18;;;;;;;8.70;4.30;;;6.80;84.10;;;;;;5031644;28;20028;-78
2022/03/08 09:31:45;;;;;;;15.85;4.50;;;6.90;83.70;;;;;;5043187;28;20028;-82
2022/03/08 09:34:16;;;;;;;6.00;4.32;;;7.00;82.50;;;;;;5049101;28;20046;-78
2022/03/08 09:36:45;;;;;;;7.03;3.75;;;7.10;82.50;;;;;;5064794;28;20031;-79
2022/03/08 09:39:12;;;;;;;6.95;4.18;;;7.20;81.60;;;;;;5064804;28;20059;-81
2022/03/08 09:41:41;;;;;;;7.50;4.18;;;7.30;81.40;;;;;;5066514;28;20047;-80
2022/03/08 09:44:12;;;;;;;4.72;3.60;;;7.40;79.90;;;;;;5083084;28;20024;-81
2022/03/08 09:46:41;;;;;;;6.80;4.13;;;7.50;79.60;;;;;;5081714;28;20027;-81
2022/03/08 09:49:08;;;;;;;8.25;3.50;;;7.60;78.70;;;;;;5051284;28;20398;-83
2022/03/08 09:51:38;;;;;;;4.95;3.83;;;7.70;77.10;;;;;;5072275;28;20032;-82
2022/03/08 09:54:05;;;;;;;4.97;3.10;;;7.80;75.30;;;;;;5052021;28;20039;-82
2022/03/08 09:56:33;;;;;;;8.45;3.90;;;7.80;75.90;;;;;;5068815;28;20487;-79
2022/03/08 09:59:00;;;;;;;4.60;3.50;;;7.80;74.50;;;;;;5081215;28;20032;-78
2022/03/08 10:01:28;;;;;;;7.25;3.80;;;7.90;73.50;;;;;;5068676;28;20036;-79
2022/03/08 10:03:55;;;;;;;8.70;4.20;;;7.90;73.10;;;;;;5064902;28;20040;-80
2022/03/08 10:06:21;;;;;;;7.38;3.38;;;7.90;72.60;;;;;;5067668;28;20027;-76
2022/03/08 10:08:49;;;;;;;8.88;3.78;;;8.00;72.90;;;;;;5084650;28;20035;-80
2022/03/08 10:11:17;;;;;;;8.07;3.78;;;8.10;72.60;;;;;;5049721;28;20040;-82
2022/03/08 10:13:50;;;;;;;6.88;3.35;;;8.20;72.90;;;;;;5086830;28;20036;-83
2022/03/08 10:16:24;;;;;;;7.43;4.07;;;8.40;73.30;;;;;;5087604;28;20031;-82
2022/03/08 10:19:02;;;;;;;8.38;3.55;;;8.70;73.00;;;;;;5085571;28;20040;-79
2022/03/08 10:21:33;;;;;;;5.65;3.67;;;8.80;71.80;;;;;;5072995;28;20058;-80
2022/03/08 10:24:05;;;;;;;7.97;3.72;;;9.00;72.40;;;;;;5101314;28;20036;-81
2022/03/08 10:26:47;;;;;;;6.70;4.10;;;9.20;70.10;;;;;;5087101;28;20028;-79
2022/03/08 10:29:27;;;;;;;8.32;3.92;;;9.30;70.00;;;;;;5066226;28;20027;-82
2022/03/08 10:32:08;;;;;;;7.13;3.70;;;9.50;69.30;;;;;;5065914;28;20737;-83
2022/03/08 10:34:36;;;;;;;5.55;3.50;;;9.60;68.00;;;;;;5065716;28;20036;-82
2022/03/08 10:37:13;;;;;;;6.53;3.63;;;9.70;68.00;;;;;;5049512;28;20032;-83
2022/03/08 10:39:52;;;;;;;6.50;4.38;;;10.00;67.00;;;;;;5074882;28;20035;-82
2022/03/08 10:42:39;;;;;;;7.38;4.32;;;10.10;66.00;;;;;;5050995;28;20039;-80
2022/03/08 10:45:07;;;;;;;4.88;3.95;;;10.30;67.00;;;;;;5085990;28;20047;-81
2022/03/08 10:47:42;;;;;;;4.35;3.30;;;10.70;64.80;;;;;;5087159;28;20035;-81
2022/03/08 10:50:11;;;;;;;6.40;3.63;;;10.90;63.80;;;;;;5065568;28;20036;-79
2022/03/08 10:52:40;;;;;;;9.07;3.92;;;11.00;62.40;;;;;;5044536;28;20024;-80
2022/03/08 10:55:31;;;;;;;8.73;4.22;;;11.10;62.40;;;;;;5064804;28;20035;-79
2022/03/08 10:58:09;;;;;;;5.90;3.53;;;11.20;62.30;;;;;;5052826;28;20028;-81
2022/03/08 11:00:38;;;;;;;5.50;3.72;;;11.50;62.80;;;;;;5066170;28;20039;-77
2022/03/08 11:03:13;;;;;;;5.82;3.28;;;11.80;61.10;;;;;;5054254;28;20032;-81
2022/03/08 11:05:44;;;;;;;10.37;3.40;;;12.00;60.10;;;;;;5086545;28;20040;-81
2022/03/08 11:08:11;;;;;;;6.90;3.47;;;12.20;60.20;;;;;;5079005;28;20509;-82
2022/03/08 11:10:39;;;;;;;5.60;3.03;;;12.30;58.30;;;;;;5085902;28;20032;-81
2022/03/08 11:13:06;;;;;;;6.75;3.67;;;12.40;58.20;;;;;;5051478;28;20028;-81
2022/03/08 11:15:35;;;;;;;5.20;3.65;;;12.50;57.80;;;;;;5086484;28;20024;-82
2022/03/08 11:18:08;;;;;;;7.00;4.00;;;12.80;58.00;;;;;;5070080;28;22335;-82
2022/03/08 11:20:35;;;;;;;8.57;3.53;;;13.00;56.90;;;;;;5086709;28;20039;-82
2022/03/08 11:23:03;;;;;;;4.40;2.47;;;13.40;57.70;;;;;;5088436;28;20027;-82
2022/03/08 11:25:35;;;;;;;4.22;2.45;;;13.80;55.70;;;;;;5087817;28;20032;-80
2022/03/08 11:28:03;;;;;;;7.00;2.30;;;14.10;54.60;;;;;;5068557;28;20391;-81
2022/03/08 11:30:44;;;;;;;5.93;2.20;;;14.20;50.10;;;;;;5088209;28;20016;-81
2022/03/08 11:33:31;;;;;;;5.30;2.22;;;14.20;48.60;;;;;;5067222;28;20093;-81
2022/03/08 11:36:15;;;;;;;6.15;1.95;;;14.10;48.80;;;;;;5087976;28;20016;-81
2022/03/08 11:39:03;;;;;;;4.93;2.22;;;14.20;48.30;;;;;;5087344;28;20020;-81
2022/03/08 11:41:29;;;;;;;5.35;2.05;;;14.30;46.80;;;;;;5086384;28;20032;-80
2022/03/08 11:43:57;;;;;;;3.65;1.80;;;14.30;46.50;;;;;;5083768;28;20062;-83
2022/03/08 11:46:26;;;;;;;4.53;2.20;;;14.20;46.50;;;;;;5088941;28;20035;-81
2022/03/08 11:49:03;;;;;;;2.95;1.85;;;14.20;46.90;;;;;;5101704;27;20023;-82
2022/03/08 11:51:33;;;;;;;4.55;1.90;;;14.50;46.90;;;;;;5074053;27;20043;-82
2022/03/08 11:54:25;;;;;;;7.68;2.42;;;14.80;46.80;;;;;;5109860;27;20031;-80
2022/03/08 11:56:52;;;;;;;;;;;15.00;45.70;;;;;;5075253;27;20031;-81
2022/03/08 11:59:21;;;;;;;5.70;2.95;;;15.10;45.20;;;;;;5090562;27;19919;-82
2022/03/08 12:01:55;;;;;;;4.15;2.72;;;15.00;44.60;;;;;;5075758;27;20024;-81
2022/03/08 12:04:25;;;;;;;3.40;2.60;;;14.70;44.60;;;;;;5090886;28;20016;-82
2022/03/08 12:07:07;;;;;;;2.83;2.08;;;14.40;44.60;;;;;;5072459;27;20035;-81
2022/03/08 12:09:38;;;;;;;4.43;2.70;;;14.50;46.10;;;;;;5087129;28;20055;-78
2022/03/08 12:12:08;;;;;;;5.35;2.63;;;15.00;45.90;;;;;;5063188;27;20040;-79
2022/03/08 12:14:40;;;;;;;3.95;2.78;;;15.30;44.00;;;;;;5088835;27;20043;-84
2022/03/08 12:17:17;;;;;;;5.20;2.58;;;15.40;42.90;;;;;;5107222;27;20035;-83
2022/03/08 12:19:59;;;;;;;3.55;2.72;;;15.50;43.30;;;;;;5085884;28;20015;-79
2022/03/08 12:22:33;;;;;;;8.68;3.92;;;15.60;41.80;;;;;;5108092;27;20024;-81
2022/03/08 12:25:00;;;;;;;5.85;2.78;;;15.60;42.20;;;;;;5089303;27;20028;-81
2022/03/08 12:27:47;;;;;;;6.40;2.42;;;15.70;41.80;;;;;;5069378;27;23328;-84
2022/03/08 12:30:14;;;;;;;4.22;2.13;;;15.80;42.20;;;;;;5090210;27;20020;-84
2022/03/08 12:32:47;;;;;;;9.43;2.97;;;15.90;42.10;;;;;;5072924;28;20043;-82
2022/03/08 12:35:25;;;;;;;3.95;2.42;;;16.30;42.00;;;;;;5089440;28;20040;-87
2022/03/08 12:38:00;;;;;;;4.45;2.97;;;16.50;40.70;;;;;;5055316;28;20030;-83
2022/03/08 12:40:31;;;;;;;5.85;2.65;;;16.50;40.60;;;;;;5048534;27;20043;-86
2022/03/08 12:44:06;;;;;;;4.55;3.08;;;16.80;41.30;;;;;;5100486;27;20046;-79
2022/03/08 12:46:52;;;;;;;6.80;2.58;;;17.30;40.80;;;;;;5064260;28;20039;-80
2022/03/08 12:49:22;;;;;;;7.40;5.40;;;17.70;39.40;;;;;;5065994;27;20052;-77
2022/03/08 12:51:49;;;;;;;6.15;2.88;;;17.70;38.70;;;;;;5065434;28;20479;-80
2022/03/08 12:54:18;;;;;;;5.32;2.50;;;17.70;39.10;;;;;;5062711;27;20047;-80
2022/03/08 12:56:48;;;;;;;7.07;3.38;;;17.80;39.00;;;;;;5083824;28;20024;-81
2022/03/08 12:59:16;;;;;;;4.57;2.70;;;18.00;38.80;;;;;;5053907;27;20043;-87
2022/03/08 13:01:43;;;;;;;5.00;2.70;;;18.10;38.30;;;;;;5034842;28;20043;-80